Hlavní strana
METAR-TAF:

METAR-TAF

Letiště :

Clemson, Jižní Karolína, Spojené státy americké

zeměpisná šířka: 34-40-20N, zeměpisná délka: 082-52-53W, výška: 272 m

Aktuální stav počasí

Zpráva byla vytvořena před 1 hodinou a 7 minutami, v 07:54 UTC
Západní vítr 9 kt
Teplota 7°C
Vlhkost vzduchu 66%
Tlak 1013 hPa
Viditelnost: 16.1 km
Skoro jasno ve výšce 6000 ft
Polojasno ve výšce 12000 ft

METAR: KCEU 270754Z AUTO 26009KT 10SM FEW060 SCT120 07/01 A2992 RMK AO2 SLP131 T00720006

Čas: 04:01 (09:01 UTC)


TAF: chybějící

Stav a předpovědi počasí z více než 4 000 letišť (zprávy METAR a TAF).

Červené a žluté tečky na mapě představují dostupné meteorologické stanice.

Když kurzor umístíte na tečku, zobrazí se název stanice.

Pak kliknutím zobrazíte stav a předpověď počasí.

Chcete-li změnit mapu, kliknutím na zelené tlačítko se znaménkem +mapu přiblížíte, kliknutím na zelené tlačítko se znaménkem – mapu oddálíte a kliknutím na zelené šipky přejdete na sousední mapy.


METAR-TAF: